sensor_id;sensor_type;location;lat;lon;timestamp;temperature;humidity
3001;DHT22;1510;51.072;6.678;2022-10-17T00:01:40;14.90;99.90
3001;DHT22;1510;51.072;6.678;2022-10-17T00:04:07;14.90;99.90
3001;DHT22;1510;51.072;6.678;2022-10-17T00:06:36;15.00;99.90
3001;DHT22;1510;51.072;6.678;2022-10-17T00:09:03;15.10;99.90
3001;DHT22;1510;51.072;6.678;2022-10-17T00:11:29;15.10;99.90
3001;DHT22;1510;51.072;6.678;2022-10-17T00:13:56;15.10;99.90
3001;DHT22;1510;51.072;6.678;2022-10-17T00:16:24;15.10;99.90
3001;DHT22;1510;51.072;6.678;2022-10-17T00:18:51;15.00;99.90
3001;DHT22;1510;51.072;6.678;2022-10-17T00:21:19;15.00;99.90
3001;DHT22;1510;51.072;6.678;2022-10-17T00:23:47;14.90;99.90
3001;DHT22;1510;51.072;6.678;2022-10-17T00:26:15;15.00;99.90
3001;DHT22;1510;51.072;6.678;2022-10-17T00:28:42;14.80;99.90
3001;DHT22;1510;51.072;6.678;2022-10-17T00:31:11;14.80;99.90
3001;DHT22;1510;51.072;6.678;2022-10-17T00:33:37;14.80;99.90
3001;DHT22;1510;51.072;6.678;2022-10-17T00:36:07;14.70;99.90
3001;DHT22;1510;51.072;6.678;2022-10-17T00:38:34;14.80;99.90
3001;DHT22;1510;51.072;6.678;2022-10-17T00:41:03;14.70;99.90
3001;DHT22;1510;51.072;6.678;2022-10-17T00:43:47;14.80;99.90
3001;DHT22;1510;51.072;6.678;2022-10-17T00:46:14;14.80;99.90
3001;DHT22;1510;51.072;6.678;2022-10-17T00:48:42;14.80;99.90
3001;DHT22;1510;51.072;6.678;2022-10-17T00:51:09;14.70;99.90
3001;DHT22;1510;51.072;6.678;2022-10-17T00:53:36;14.60;99.90
3001;DHT22;1510;51.072;6.678;2022-10-17T00:56:06;14.70;99.90
3001;DHT22;1510;51.072;6.678;2022-10-17T00:58:34;14.70;99.90
3001;DHT22;1510;51.072;6.678;2022-10-17T01:01:02;14.60;99.90
3001;DHT22;1510;51.072;6.678;2022-10-17T01:03:29;14.60;99.90
3001;DHT22;1510;51.072;6.678;2022-10-17T01:05:56;14.70;99.90
3001;DHT22;1510;51.072;6.678;2022-10-17T01:08:23;14.60;99.90
3001;DHT22;1510;51.072;6.678;2022-10-17T01:10:56;14.60;99.90
3001;DHT22;1510;51.072;6.678;2022-10-17T01:13:29;14.60;99.90
3001;DHT22;1510;51.072;6.678;2022-10-17T01:16:04;14.50;99.90
3001;DHT22;1510;51.072;6.678;2022-10-17T01:18:42;14.60;99.90
3001;DHT22;1510;51.072;6.678;2022-10-17T01:24:46;14.70;99.90
3001;DHT22;1510;51.072;6.678;2022-10-17T01:30:55;14.80;99.90
3001;DHT22;1510;51.072;6.678;2022-10-17T01:33:34;14.70;99.90
3001;DHT22;1510;51.072;6.678;2022-10-17T01:36:09;14.70;99.90
3001;DHT22;1510;51.072;6.678;2022-10-17T01:38:43;14.70;99.90
3001;DHT22;1510;51.072;6.678;2022-10-17T01:41:18;14.70;99.90
3001;DHT22;1510;51.072;6.678;2022-10-17T01:43:51;14.60;99.90
3001;DHT22;1510;51.072;6.678;2022-10-17T01:46:24;14.70;99.90
3001;DHT22;1510;51.072;6.678;2022-10-17T01:48:52;14.70;99.90
3001;DHT22;1510;51.072;6.678;2022-10-17T01:51:22;14.60;99.90
3001;DHT22;1510;51.072;6.678;2022-10-17T01:53:53;14.60;99.90
3001;DHT22;1510;51.072;6.678;2022-10-17T01:56:24;14.60;99.90
3001;DHT22;1510;51.072;6.678;2022-10-17T01:58:55;14.60;99.90
3001;DHT22;1510;51.072;6.678;2022-10-17T02:01:42;14.60;99.90
3001;DHT22;1510;51.072;6.678;2022-10-17T02:04:24;14.60;99.90
3001;DHT22;1510;51.072;6.678;2022-10-17T02:06:51;14.50;99.90
3001;DHT22;1510;51.072;6.678;2022-10-17T02:09:20;14.40;99.90
3001;DHT22;1510;51.072;6.678;2022-10-17T02:12:05;14.50;99.90
3001;DHT22;1510;51.072;6.678;2022-10-17T02:14:43;14.50;99.90
3001;DHT22;1510;51.072;6.678;2022-10-17T02:17:18;14.40;99.90
3001;DHT22;1510;51.072;6.678;2022-10-17T02:19:54;14.40;99.90
3001;DHT22;1510;51.072;6.678;2022-10-17T02:22:29;14.30;99.90
3001;DHT22;1510;51.072;6.678;2022-10-17T02:25:04;14.40;99.90
3001;DHT22;1510;51.072;6.678;2022-10-17T02:27:41;14.30;99.90
3001;DHT22;1510;51.072;6.678;2022-10-17T02:30:11;14.40;99.90
3001;DHT22;1510;51.072;6.678;2022-10-17T02:32:46;14.30;99.90
3001;DHT22;1510;51.072;6.678;2022-10-17T02:35:16;14.40;99.90
3001;DHT22;1510;51.072;6.678;2022-10-17T02:37:45;14.30;99.90
3001;DHT22;1510;51.072;6.678;2022-10-17T02:40:14;14.40;99.90
3001;DHT22;1510;51.072;6.678;2022-10-17T02:42:43;14.40;99.90
3001;DHT22;1510;51.072;6.678;2022-10-17T02:45:13;14.40;99.90
3001;DHT22;1510;51.072;6.678;2022-10-17T02:47:49;14.40;99.90
3001;DHT22;1510;51.072;6.678;2022-10-17T02:50:23;14.40;99.90
3001;DHT22;1510;51.072;6.678;2022-10-17T02:52:56;14.40;99.90
3001;DHT22;1510;51.072;6.678;2022-10-17T02:55:26;14.40;99.90
3001;DHT22;1510;51.072;6.678;2022-10-17T02:57:58;14.30;99.90
3001;DHT22;1510;51.072;6.678;2022-10-17T03:00:27;14.40;99.90
3001;DHT22;1510;51.072;6.678;2022-10-17T03:02:55;14.40;99.90
3001;DHT22;1510;51.072;6.678;2022-10-17T03:05:24;14.40;99.90
3001;DHT22;1510;51.072;6.678;2022-10-17T03:07:52;14.30;99.90
3001;DHT22;1510;51.072;6.678;2022-10-17T03:10:19;14.30;99.90
3001;DHT22;1510;51.072;6.678;2022-10-17T03:12:47;14.40;99.90
3001;DHT22;1510;51.072;6.678;2022-10-17T03:15:13;14.40;99.90
3001;DHT22;1510;51.072;6.678;2022-10-17T03:17:40;14.40;99.90
3001;DHT22;1510;51.072;6.678;2022-10-17T03:20:09;14.40;99.90
3001;DHT22;1510;51.072;6.678;2022-10-17T03:22:36;14.30;99.90
3001;DHT22;1510;51.072;6.678;2022-10-17T03:25:03;14.40;99.90
3001;DHT22;1510;51.072;6.678;2022-10-17T03:27:30;14.40;99.90
3001;DHT22;1510;51.072;6.678;2022-10-17T03:29:56;14.40;99.90
3001;DHT22;1510;51.072;6.678;2022-10-17T03:32:23;14.40;99.90
3001;DHT22;1510;51.072;6.678;2022-10-17T03:34:50;14.50;99.90
3001;DHT22;1510;51.072;6.678;2022-10-17T03:37:18;14.50;99.90
3001;DHT22;1510;51.072;6.678;2022-10-17T03:39:44;14.50;99.90
3001;DHT22;1510;51.072;6.678;2022-10-17T03:42:11;14.60;99.90
3001;DHT22;1510;51.072;6.678;2022-10-17T03:44:38;14.70;99.90
3001;DHT22;1510;51.072;6.678;2022-10-17T03:47:05;14.70;99.90
3001;DHT22;1510;51.072;6.678;2022-10-17T03:49:31;14.70;99.90
3001;DHT22;1510;51.072;6.678;2022-10-17T03:51:58;14.80;99.90
3001;DHT22;1510;51.072;6.678;2022-10-17T03:54:26;14.80;99.90
3001;DHT22;1510;51.072;6.678;2022-10-17T03:56:53;14.80;99.90
3001;DHT22;1510;51.072;6.678;2022-10-17T03:59:20;14.80;99.90
3001;DHT22;1510;51.072;6.678;2022-10-17T04:01:47;14.90;99.90
3001;DHT22;1510;51.072;6.678;2022-10-17T04:04:13;14.90;99.90
3001;DHT22;1510;51.072;6.678;2022-10-17T04:06:40;14.90;99.90
3001;DHT22;1510;51.072;6.678;2022-10-17T04:09:07;14.90;99.90
3001;DHT22;1510;51.072;6.678;2022-10-17T04:11:36;14.90;99.90
3001;DHT22;1510;51.072;6.678;2022-10-17T04:14:03;14.90;99.90
3001;DHT22;1510;51.072;6.678;2022-10-17T04:16:30;14.80;99.90
3001;DHT22;1510;51.072;6.678;2022-10-17T04:18:58;14.80;99.90
3001;DHT22;1510;51.072;6.678;2022-10-17T04:21:27;14.80;99.90
3001;DHT22;1510;51.072;6.678;2022-10-17T04:23:58;14.80;99.90
3001;DHT22;1510;51.072;6.678;2022-10-17T04:26:25;14.80;99.90
3001;DHT22;1510;51.072;6.678;2022-10-17T04:28:53;14.80;99.90
3001;DHT22;1510;51.072;6.678;2022-10-17T04:31:20;14.80;99.90
3001;DHT22;1510;51.072;6.678;2022-10-17T04:33:48;14.90;99.90
3001;DHT22;1510;51.072;6.678;2022-10-17T04:36:16;14.90;99.90
3001;DHT22;1510;51.072;6.678;2022-10-17T04:38:43;14.90;99.90
3001;DHT22;1510;51.072;6.678;2022-10-17T04:41:12;14.80;99.90
3001;DHT22;1510;51.072;6.678;2022-10-17T04:43:39;14.70;99.90
3001;DHT22;1510;51.072;6.678;2022-10-17T04:46:09;14.80;99.90
3001;DHT22;1510;51.072;6.678;2022-10-17T04:48:37;14.80;99.90
3001;DHT22;1510;51.072;6.678;2022-10-17T04:51:05;14.80;99.90
3001;DHT22;1510;51.072;6.678;2022-10-17T04:53:36;14.80;99.90
3001;DHT22;1510;51.072;6.678;2022-10-17T04:56:07;14.80;99.90
3001;DHT22;1510;51.072;6.678;2022-10-17T04:58:34;14.80;99.90
3001;DHT22;1510;51.072;6.678;2022-10-17T05:01:04;14.90;99.90
3001;DHT22;1510;51.072;6.678;2022-10-17T05:03:32;15.00;99.90
3001;DHT22;1510;51.072;6.678;2022-10-17T05:06:03;14.90;99.90
3001;DHT22;1510;51.072;6.678;2022-10-17T05:08:29;14.90;99.90
3001;DHT22;1510;51.072;6.678;2022-10-17T05:10:56;14.90;99.90
3001;DHT22;1510;51.072;6.678;2022-10-17T05:13:23;14.90;99.90
3001;DHT22;1510;51.072;6.678;2022-10-17T05:15:50;14.90;99.90
3001;DHT22;1510;51.072;6.678;2022-10-17T05:18:16;15.00;99.90
3001;DHT22;1510;51.072;6.678;2022-10-17T05:20:44;15.10;99.90
3001;DHT22;1510;51.072;6.678;2022-10-17T05:23:11;15.10;99.90
3001;DHT22;1510;51.072;6.678;2022-10-17T05:25:38;15.10;99.90
3001;DHT22;1510;51.072;6.678;2022-10-17T05:28:04;15.20;99.90
3001;DHT22;1510;51.072;6.678;2022-10-17T05:30:31;15.10;99.90
3001;DHT22;1510;51.072;6.678;2022-10-17T05:32:58;15.10;99.90
3001;DHT22;1510;51.072;6.678;2022-10-17T05:35:25;15.10;99.90
3001;DHT22;1510;51.072;6.678;2022-10-17T05:37:53;15.10;99.90
3001;DHT22;1510;51.072;6.678;2022-10-17T05:40:19;15.20;99.90
3001;DHT22;1510;51.072;6.678;2022-10-17T05:42:46;15.20;99.90
3001;DHT22;1510;51.072;6.678;2022-10-17T05:45:14;15.20;99.90
3001;DHT22;1510;51.072;6.678;2022-10-17T05:47:41;15.10;99.90
3001;DHT22;1510;51.072;6.678;2022-10-17T05:50:08;15.00;99.90
3001;DHT22;1510;51.072;6.678;2022-10-17T05:52:35;15.00;99.90
3001;DHT22;1510;51.072;6.678;2022-10-17T05:55:04;15.00;99.90
3001;DHT22;1510;51.072;6.678;2022-10-17T05:57:31;15.00;99.90
3001;DHT22;1510;51.072;6.678;2022-10-17T05:59:58;14.90;99.90
3001;DHT22;1510;51.072;6.678;2022-10-17T06:02:25;15.00;99.90
3001;DHT22;1510;51.072;6.678;2022-10-17T06:04:52;14.90;99.90
3001;DHT22;1510;51.072;6.678;2022-10-17T06:07:19;14.90;99.90
3001;DHT22;1510;51.072;6.678;2022-10-17T06:09:45;14.90;99.90
3001;DHT22;1510;51.072;6.678;2022-10-17T06:12:13;14.80;99.90
3001;DHT22;1510;51.072;6.678;2022-10-17T06:14:40;14.70;99.90
3001;DHT22;1510;51.072;6.678;2022-10-17T06:17:07;14.70;99.90
3001;DHT22;1510;51.072;6.678;2022-10-17T06:19:34;14.60;99.90
3001;DHT22;1510;51.072;6.678;2022-10-17T06:22:01;14.70;99.90
3001;DHT22;1510;51.072;6.678;2022-10-17T06:24:28;14.80;99.90
3001;DHT22;1510;51.072;6.678;2022-10-17T06:26:54;14.90;99.90
3001;DHT22;1510;51.072;6.678;2022-10-17T06:29:23;14.90;99.90
3001;DHT22;1510;51.072;6.678;2022-10-17T06:31:50;15.00;99.90
3001;DHT22;1510;51.072;6.678;2022-10-17T06:34:17;15.20;99.90
3001;DHT22;1510;51.072;6.678;2022-10-17T06:36:44;15.20;99.90
3001;DHT22;1510;51.072;6.678;2022-10-17T06:39:10;15.30;99.90
3001;DHT22;1510;51.072;6.678;2022-10-17T06:41:37;15.30;99.90
3001;DHT22;1510;51.072;6.678;2022-10-17T06:44:05;15.40;99.90
3001;DHT22;1510;51.072;6.678;2022-10-17T06:46:37;15.40;99.90
3001;DHT22;1510;51.072;6.678;2022-10-17T06:49:04;15.40;99.90
3001;DHT22;1510;51.072;6.678;2022-10-17T06:51:31;15.40;99.90
3001;DHT22;1510;51.072;6.678;2022-10-17T06:54:00;15.50;99.90
3001;DHT22;1510;51.072;6.678;2022-10-17T06:56:26;15.50;99.90
3001;DHT22;1510;51.072;6.678;2022-10-17T06:58:53;15.60;99.90
3001;DHT22;1510;51.072;6.678;2022-10-17T07:01:20;15.70;99.90
3001;DHT22;1510;51.072;6.678;2022-10-17T07:03:48;15.80;99.90
3001;DHT22;1510;51.072;6.678;2022-10-17T07:06:15;15.80;99.90
3001;DHT22;1510;51.072;6.678;2022-10-17T07:08:43;15.90;99.90
3001;DHT22;1510;51.072;6.678;2022-10-17T07:11:10;16.00;99.90
3001;DHT22;1510;51.072;6.678;2022-10-17T07:13:38;16.00;99.90
3001;DHT22;1510;51.072;6.678;2022-10-17T07:16:05;16.10;99.90
3001;DHT22;1510;51.072;6.678;2022-10-17T07:18:32;16.20;99.90
3001;DHT22;1510;51.072;6.678;2022-10-17T07:21:00;16.30;99.90
3001;DHT22;1510;51.072;6.678;2022-10-17T07:23:28;16.40;99.90
3001;DHT22;1510;51.072;6.678;2022-10-17T07:25:58;16.40;99.90
3001;DHT22;1510;51.072;6.678;2022-10-17T07:28:26;16.50;99.90
3001;DHT22;1510;51.072;6.678;2022-10-17T07:30:53;16.60;99.90
3001;DHT22;1510;51.072;6.678;2022-10-17T07:33:20;16.70;99.90
3001;DHT22;1510;51.072;6.678;2022-10-17T07:35:46;16.80;99.90
3001;DHT22;1510;51.072;6.678;2022-10-17T07:38:14;16.80;99.90
3001;DHT22;1510;51.072;6.678;2022-10-17T07:40:41;17.00;99.90
3001;DHT22;1510;51.072;6.678;2022-10-17T07:43:08;17.00;99.90
3001;DHT22;1510;51.072;6.678;2022-10-17T07:45:34;17.10;99.90
3001;DHT22;1510;51.072;6.678;2022-10-17T07:48:01;17.10;99.90
3001;DHT22;1510;51.072;6.678;2022-10-17T07:50:28;17.20;99.90
3001;DHT22;1510;51.072;6.678;2022-10-17T07:52:56;17.30;99.90
3001;DHT22;1510;51.072;6.678;2022-10-17T07:55:24;17.30;99.90
3001;DHT22;1510;51.072;6.678;2022-10-17T07:57:50;17.50;99.90
3001;DHT22;1510;51.072;6.678;2022-10-17T08:00:17;17.60;99.90
3001;DHT22;1510;51.072;6.678;2022-10-17T08:02:44;17.60;99.90
3001;DHT22;1510;51.072;6.678;2022-10-17T08:05:11;17.60;99.90
3001;DHT22;1510;51.072;6.678;2022-10-17T08:07:37;17.80;99.90
3001;DHT22;1510;51.072;6.678;2022-10-17T08:10:06;17.90;99.90
3001;DHT22;1510;51.072;6.678;2022-10-17T08:12:34;18.00;99.90
3001;DHT22;1510;51.072;6.678;2022-10-17T08:15:01;18.10;99.90
3001;DHT22;1510;51.072;6.678;2022-10-17T08:17:28;18.30;99.90
3001;DHT22;1510;51.072;6.678;2022-10-17T08:19:54;18.30;99.90
3001;DHT22;1510;51.072;6.678;2022-10-17T08:22:21;18.40;99.90
3001;DHT22;1510;51.072;6.678;2022-10-17T08:24:48;18.50;99.90
3001;DHT22;1510;51.072;6.678;2022-10-17T08:27:15;18.70;99.90
3001;DHT22;1510;51.072;6.678;2022-10-17T08:29:49;18.70;99.90
3001;DHT22;1510;51.072;6.678;2022-10-17T08:32:17;18.90;99.90
3001;DHT22;1510;51.072;6.678;2022-10-17T08:34:44;19.10;99.90
3001;DHT22;1510;51.072;6.678;2022-10-17T08:37:10;19.20;99.90
3001;DHT22;1510;51.072;6.678;2022-10-17T08:39:38;19.40;99.90
3001;DHT22;1510;51.072;6.678;2022-10-17T08:42:24;19.60;99.90
3001;DHT22;1510;51.072;6.678;2022-10-17T08:44:59;19.50;99.90
3001;DHT22;1510;51.072;6.678;2022-10-17T08:47:34;19.50;99.90
3001;DHT22;1510;51.072;6.678;2022-10-17T08:50:04;19.60;99.90
3001;DHT22;1510;51.072;6.678;2022-10-17T08:52:37;19.60;99.90
3001;DHT22;1510;51.072;6.678;2022-10-17T08:55:14;19.70;99.90
3001;DHT22;1510;51.072;6.678;2022-10-17T08:57:41;19.90;99.90
3001;DHT22;1510;51.072;6.678;2022-10-17T09:00:16;20.10;99.90
3001;DHT22;1510;51.072;6.678;2022-10-17T09:02:51;20.40;99.90
3001;DHT22;1510;51.072;6.678;2022-10-17T09:05:32;20.50;99.90
3001;DHT22;1510;51.072;6.678;2022-10-17T09:08:12;20.70;99.90
3001;DHT22;1510;51.072;6.678;2022-10-17T09:10:51;21.00;99.90
3001;DHT22;1510;51.072;6.678;2022-10-17T09:16:41;21.10;99.40
3001;DHT22;1510;51.072;6.678;2022-10-17T09:19:18;21.50;98.80
3001;DHT22;1510;51.072;6.678;2022-10-17T09:21:51;21.70;97.70
3001;DHT22;1510;51.072;6.678;2022-10-17T09:24:22;21.70;97.10
3001;DHT22;1510;51.072;6.678;2022-10-17T09:26:53;21.70;96.70
3001;DHT22;1510;51.072;6.678;2022-10-17T09:29:23;21.60;97.00
3001;DHT22;1510;51.072;6.678;2022-10-17T09:32:00;21.40;96.90
3001;DHT22;1510;51.072;6.678;2022-10-17T09:34:29;21.40;97.50
3001;DHT22;1510;51.072;6.678;2022-10-17T09:36:57;21.20;98.10
3001;DHT22;1510;51.072;6.678;2022-10-17T09:39:25;21.20;98.20
3001;DHT22;1510;51.072;6.678;2022-10-17T09:41:57;21.10;97.80
3001;DHT22;1510;51.072;6.678;2022-10-17T09:44:29;21.00;97.90
3001;DHT22;1510;51.072;6.678;2022-10-17T09:47:05;20.90;98.40
3001;DHT22;1510;51.072;6.678;2022-10-17T09:49:37;20.80;98.30
3001;DHT22;1510;51.072;6.678;2022-10-17T09:52:10;20.90;98.30
3001;DHT22;1510;51.072;6.678;2022-10-17T09:54:42;20.80;98.50
3001;DHT22;1510;51.072;6.678;2022-10-17T09:57:10;20.90;98.30
3001;DHT22;1510;51.072;6.678;2022-10-17T09:59:39;20.80;98.40
3001;DHT22;1510;51.072;6.678;2022-10-17T10:02:14;20.70;98.40
3001;DHT22;1510;51.072;6.678;2022-10-17T10:04:59;20.60;99.10
3001;DHT22;1510;51.072;6.678;2022-10-17T10:07:28;20.60;98.70
3001;DHT22;1510;51.072;6.678;2022-10-17T10:09:56;20.50;99.20
3001;DHT22;1510;51.072;6.678;2022-10-17T10:12:25;20.60;99.30
3001;DHT22;1510;51.072;6.678;2022-10-17T10:14:52;20.50;99.40
3001;DHT22;1510;51.072;6.678;2022-10-17T10:17:33;20.50;99.40
3001;DHT22;1510;51.072;6.678;2022-10-17T10:20:00;20.50;99.30
3001;DHT22;1510;51.072;6.678;2022-10-17T10:22:27;20.50;99.30
3001;DHT22;1510;51.072;6.678;2022-10-17T10:25:06;20.50;99.10
3001;DHT22;1510;51.072;6.678;2022-10-17T10:27:33;20.50;98.90
3001;DHT22;1510;51.072;6.678;2022-10-17T10:30:01;20.60;99.20
3001;DHT22;1510;51.072;6.678;2022-10-17T10:32:31;20.60;99.40
3001;DHT22;1510;51.072;6.678;2022-10-17T10:35:02;20.70;99.90
3001;DHT22;1510;51.072;6.678;2022-10-17T10:37:33;20.60;99.70
3001;DHT22;1510;51.072;6.678;2022-10-17T10:40:03;20.50;99.90
3001;DHT22;1510;51.072;6.678;2022-10-17T10:42:32;20.40;99.90
3001;DHT22;1510;51.072;6.678;2022-10-17T10:45:02;20.30;99.90
3001;DHT22;1510;51.072;6.678;2022-10-17T10:47:31;20.20;99.90
3001;DHT22;1510;51.072;6.678;2022-10-17T10:50:25;20.20;99.90
3001;DHT22;1510;51.072;6.678;2022-10-17T10:53:00;20.30;99.90
3001;DHT22;1510;51.072;6.678;2022-10-17T10:55:34;20.10;99.90
3001;DHT22;1510;51.072;6.678;2022-10-17T10:58:05;20.10;99.90
3001;DHT22;1510;51.072;6.678;2022-10-17T11:00:37;20.10;99.90
3001;DHT22;1510;51.072;6.678;2022-10-17T11:03:11;20.10;99.90
3001;DHT22;1510;51.072;6.678;2022-10-17T11:05:43;20.00;99.90
3001;DHT22;1510;51.072;6.678;2022-10-17T11:08:17;20.00;99.90
3001;DHT22;1510;51.072;6.678;2022-10-17T11:10:58;19.90;99.90
3001;DHT22;1510;51.072;6.678;2022-10-17T11:13:30;20.10;99.90
3001;DHT22;1510;51.072;6.678;2022-10-17T11:16:01;20.10;99.90
3001;DHT22;1510;51.072;6.678;2022-10-17T12:24:37;20.10;99.90
3001;DHT22;1510;51.072;6.678;2022-10-17T12:27:35;20.30;99.90
3001;DHT22;1510;51.072;6.678;2022-10-17T12:30:05;20.20;99.90
3001;DHT22;1510;51.072;6.678;2022-10-17T12:32:59;20.10;99.10
3001;DHT22;1510;51.072;6.678;2022-10-17T12:35:28;20.10;98.60
3001;DHT22;1510;51.072;6.678;2022-10-17T12:38:19;20.20;98.00
3001;DHT22;1510;51.072;6.678;2022-10-17T12:40:53;20.10;98.50
3001;DHT22;1510;51.072;6.678;2022-10-17T12:46:55;20.30;97.90
3001;DHT22;1510;51.072;6.678;2022-10-17T12:49:46;20.30;97.80
3001;DHT22;1510;51.072;6.678;2022-10-17T12:52:23;20.30;97.50
3001;DHT22;1510;51.072;6.678;2022-10-17T12:54:54;20.30;97.60
3001;DHT22;1510;51.072;6.678;2022-10-17T12:57:28;20.20;97.60
3001;DHT22;1510;51.072;6.678;2022-10-17T12:59:56;20.30;97.70
3001;DHT22;1510;51.072;6.678;2022-10-17T13:02:25;20.20;97.60
3001;DHT22;1510;51.072;6.678;2022-10-17T13:05:04;20.30;97.00
3001;DHT22;1510;51.072;6.678;2022-10-17T13:07:34;20.40;97.60
3001;DHT22;1510;51.072;6.678;2022-10-17T13:10:01;20.40;97.20
3001;DHT22;1510;51.072;6.678;2022-10-17T13:12:32;20.50;97.30
3001;DHT22;1510;51.072;6.678;2022-10-17T13:15:03;20.50;97.20
3001;DHT22;1510;51.072;6.678;2022-10-17T13:17:32;20.70;96.90
3001;DHT22;1510;51.072;6.678;2022-10-17T13:19:59;20.70;96.80
3001;DHT22;1510;51.072;6.678;2022-10-17T13:22:27;20.70;96.00
3001;DHT22;1510;51.072;6.678;2022-10-17T13:25:05;20.70;96.30
3001;DHT22;1510;51.072;6.678;2022-10-17T13:27:35;20.70;96.40
3001;DHT22;1510;51.072;6.678;2022-10-17T13:30:21;20.70;96.80
3001;DHT22;1510;51.072;6.678;2022-10-17T13:32:48;20.60;96.80
3001;DHT22;1510;51.072;6.678;2022-10-17T13:35:21;20.60;96.80
3001;DHT22;1510;51.072;6.678;2022-10-17T13:37:49;20.50;96.60
3001;DHT22;1510;51.072;6.678;2022-10-17T13:40:18;20.60;96.50
3001;DHT22;1510;51.072;6.678;2022-10-17T13:42:46;20.80;96.20
3001;DHT22;1510;51.072;6.678;2022-10-17T13:45:19;20.80;96.00
3001;DHT22;1510;51.072;6.678;2022-10-17T13:47:47;20.80;96.10
3001;DHT22;1510;51.072;6.678;2022-10-17T13:50:22;20.90;96.10
3001;DHT22;1510;51.072;6.678;2022-10-17T13:53:06;20.90;96.00
3001;DHT22;1510;51.072;6.678;2022-10-17T13:55:33;21.00;96.30
3001;DHT22;1510;51.072;6.678;2022-10-17T13:58:14;21.10;95.90
3001;DHT22;1510;51.072;6.678;2022-10-17T14:00:42;21.20;95.70
3001;DHT22;1510;51.072;6.678;2022-10-17T14:03:10;21.20;95.60
3001;DHT22;1510;51.072;6.678;2022-10-17T14:06:11;21.20;95.60
3001;DHT22;1510;51.072;6.678;2022-10-17T14:08:50;21.30;95.40
3001;DHT22;1510;51.072;6.678;2022-10-17T14:11:26;21.20;95.60
3001;DHT22;1510;51.072;6.678;2022-10-17T14:13:56;21.20;95.60
3001;DHT22;1510;51.072;6.678;2022-10-17T14:16:25;21.20;95.60
3001;DHT22;1510;51.072;6.678;2022-10-17T14:18:53;21.10;95.20
3001;DHT22;1510;51.072;6.678;2022-10-17T14:22:22;21.10;94.80
3001;DHT22;1510;51.072;6.678;2022-10-17T14:24:34;21.10;95.30
3001;DHT22;1510;51.072;6.678;2022-10-17T14:27:01;21.00;95.50
3001;DHT22;1510;51.072;6.678;2022-10-17T14:29:30;20.90;95.50
3001;DHT22;1510;51.072;6.678;2022-10-17T14:31:59;20.90;95.80
3001;DHT22;1510;51.072;6.678;2022-10-17T14:34:30;20.80;95.40
3001;DHT22;1510;51.072;6.678;2022-10-17T14:36:58;20.80;95.40
3001;DHT22;1510;51.072;6.678;2022-10-17T14:39:26;20.80;95.40
3001;DHT22;1510;51.072;6.678;2022-10-17T14:41:54;20.80;95.40
3001;DHT22;1510;51.072;6.678;2022-10-17T14:46:04;20.70;95.40
3001;DHT22;1510;51.072;6.678;2022-10-17T14:47:34;20.60;95.30
3001;DHT22;1510;51.072;6.678;2022-10-17T14:53:27;20.60;95.70
3001;DHT22;1510;51.072;6.678;2022-10-17T14:56:24;20.60;95.40
3001;DHT22;1510;51.072;6.678;2022-10-17T14:58:51;20.60;96.30
3001;DHT22;1510;51.072;6.678;2022-10-17T15:01:19;20.50;96.20
3001;DHT22;1510;51.072;6.678;2022-10-17T15:03:46;20.50;96.70
3001;DHT22;1510;51.072;6.678;2022-10-17T15:06:17;20.40;97.90
3001;DHT22;1510;51.072;6.678;2022-10-17T15:08:44;20.20;98.50
3001;DHT22;1510;51.072;6.678;2022-10-17T15:11:11;20.00;99.00
3001;DHT22;1510;51.072;6.678;2022-10-17T15:13:38;19.80;99.60
3001;DHT22;1510;51.072;6.678;2022-10-17T15:16:09;19.80;99.90
3001;DHT22;1510;51.072;6.678;2022-10-17T15:18:40;19.60;99.90
3001;DHT22;1510;51.072;6.678;2022-10-17T15:21:10;19.50;99.90
3001;DHT22;1510;51.072;6.678;2022-10-17T15:23:38;19.50;99.90
3001;DHT22;1510;51.072;6.678;2022-10-17T15:26:12;19.40;99.90
3001;DHT22;1510;51.072;6.678;2022-10-17T15:28:39;19.30;99.90
3001;DHT22;1510;51.072;6.678;2022-10-17T15:31:10;19.30;99.90
3001;DHT22;1510;51.072;6.678;2022-10-17T15:33:36;19.10;99.90
3001;DHT22;1510;51.072;6.678;2022-10-17T15:36:28;19.20;99.90
3001;DHT22;1510;51.072;6.678;2022-10-17T15:38:57;19.10;99.90
3001;DHT22;1510;51.072;6.678;2022-10-17T15:41:27;19.10;99.90
3001;DHT22;1510;51.072;6.678;2022-10-17T15:44:09;19.10;99.90
3001;DHT22;1510;51.072;6.678;2022-10-17T15:49:34;18.90;99.90
3001;DHT22;1510;51.072;6.678;2022-10-17T15:52:14;18.80;99.90
3001;DHT22;1510;51.072;6.678;2022-10-17T15:54:53;18.40;99.90
3001;DHT22;1510;51.072;6.678;2022-10-17T16:00:39;17.80;99.90
3001;DHT22;1510;51.072;6.678;2022-10-17T16:03:14;17.90;99.90
3001;DHT22;1510;51.072;6.678;2022-10-17T16:06:02;17.80;99.90
3001;DHT22;1510;51.072;6.678;2022-10-17T16:08:38;17.70;99.90
3001;DHT22;1510;51.072;6.678;2022-10-17T16:11:10;17.60;99.90
3001;DHT22;1510;51.072;6.678;2022-10-17T16:13:47;17.60;99.90
3001;DHT22;1510;51.072;6.678;2022-10-17T16:16:15;17.50;99.90
3001;DHT22;1510;51.072;6.678;2022-10-17T16:18:42;17.40;99.90
3001;DHT22;1510;51.072;6.678;2022-10-17T16:21:11;17.50;99.90
3001;DHT22;1510;51.072;6.678;2022-10-17T16:23:40;17.30;99.90
3001;DHT22;1510;51.072;6.678;2022-10-17T16:26:07;17.30;99.90
3001;DHT22;1510;51.072;6.678;2022-10-17T16:28:42;17.20;99.90
3001;DHT22;1510;51.072;6.678;2022-10-17T16:31:18;17.20;99.90
3001;DHT22;1510;51.072;6.678;2022-10-17T16:34:01;17.20;99.90
3001;DHT22;1510;51.072;6.678;2022-10-17T16:36:40;17.10;99.90
3001;DHT22;1510;51.072;6.678;2022-10-17T16:39:18;17.10;99.90
3001;DHT22;1510;51.072;6.678;2022-10-17T16:41:49;17.10;99.90
3001;DHT22;1510;51.072;6.678;2022-10-17T16:44:20;17.00;99.90
3001;DHT22;1510;51.072;6.678;2022-10-17T16:46:56;17.00;99.90
3001;DHT22;1510;51.072;6.678;2022-10-17T16:49:25;16.90;99.90
3001;DHT22;1510;51.072;6.678;2022-10-17T16:52:13;16.80;99.90
3001;DHT22;1510;51.072;6.678;2022-10-17T16:54:59;16.80;99.90
3001;DHT22;1510;51.072;6.678;2022-10-17T16:57:45;16.80;99.90
3001;DHT22;1510;51.072;6.678;2022-10-17T17:00:32;16.70;99.90
3001;DHT22;1510;51.072;6.678;2022-10-17T17:03:00;16.70;99.90
3001;DHT22;1510;51.072;6.678;2022-10-17T17:05:32;16.70;99.90
3001;DHT22;1510;51.072;6.678;2022-10-17T17:07:58;16.70;99.90
3001;DHT22;1510;51.072;6.678;2022-10-17T17:10:29;16.70;99.90
3001;DHT22;1510;51.072;6.678;2022-10-17T17:12:55;16.70;99.90
3001;DHT22;1510;51.072;6.678;2022-10-17T17:15:22;16.70;99.90
3001;DHT22;1510;51.072;6.678;2022-10-17T17:17:49;16.70;99.90
3001;DHT22;1510;51.072;6.678;2022-10-17T17:20:16;16.60;99.90
3001;DHT22;1510;51.072;6.678;2022-10-17T17:22:43;16.60;99.90
3001;DHT22;1510;51.072;6.678;2022-10-17T17:25:10;16.60;99.90
3001;DHT22;1510;51.072;6.678;2022-10-17T17:27:38;16.70;99.90
3001;DHT22;1510;51.072;6.678;2022-10-17T17:30:06;16.60;99.90
3001;DHT22;1510;51.072;6.678;2022-10-17T17:32:33;16.50;99.90
3001;DHT22;1510;51.072;6.678;2022-10-17T17:35:00;16.60;99.90
3001;DHT22;1510;51.072;6.678;2022-10-17T17:37:27;16.50;99.90
3001;DHT22;1510;51.072;6.678;2022-10-17T17:39:56;16.50;99.90
3001;DHT22;1510;51.072;6.678;2022-10-17T17:42:23;16.50;99.90
3001;DHT22;1510;51.072;6.678;2022-10-17T17:44:54;16.50;99.90
3001;DHT22;1510;51.072;6.678;2022-10-17T17:47:21;16.40;99.90
3001;DHT22;1510;51.072;6.678;2022-10-17T17:49:48;16.50;99.90
3001;DHT22;1510;51.072;6.678;2022-10-17T17:52:14;16.50;99.90
3001;DHT22;1510;51.072;6.678;2022-10-17T17:54:41;16.50;99.90